sensor_id;sensor_type;location;lat;lon;timestamp;P1;durP1;ratioP1;P2;durP2;ratioP2
67500;SDS011;54349;52.528;19.760;2023-03-12T00:01:20;4.50;;;2.30;;
67500;SDS011;54349;52.528;19.760;2023-03-12T00:03:50;5.80;;;2.20;;
67500;SDS011;54349;52.528;19.760;2023-03-12T00:06:20;4.60;;;2.40;;
67500;SDS011;54349;52.528;19.760;2023-03-12T00:08:49;3.70;;;2.00;;
67500;SDS011;54349;52.528;19.760;2023-03-12T00:11:19;5.20;;;2.20;;
67500;SDS011;54349;52.528;19.760;2023-03-12T00:13:53;3.70;;;2.10;;
67500;SDS011;54349;52.528;19.760;2023-03-12T00:16:23;4.10;;;2.00;;
67500;SDS011;54349;52.528;19.760;2023-03-12T00:18:53;4.40;;;2.40;;
67500;SDS011;54349;52.528;19.760;2023-03-12T00:21:23;4.10;;;2.30;;
67500;SDS011;54349;52.528;19.760;2023-03-12T00:23:52;3.70;;;2.10;;
67500;SDS011;54349;52.528;19.760;2023-03-12T00:26:22;4.30;;;2.00;;
67500;SDS011;54349;52.528;19.760;2023-03-12T00:28:51;6.30;;;2.30;;
67500;SDS011;54349;52.528;19.760;2023-03-12T00:31:29;4.00;;;2.30;;
67500;SDS011;54349;52.528;19.760;2023-03-12T00:34:01;4.00;;;2.00;;
67500;SDS011;54349;52.528;19.760;2023-03-12T00:36:31;4.20;;;2.00;;
67500;SDS011;54349;52.528;19.760;2023-03-12T00:39:01;4.70;;;2.00;;
67500;SDS011;54349;52.528;19.760;2023-03-12T00:41:29;3.70;;;2.10;;
67500;SDS011;54349;52.528;19.760;2023-03-12T00:43:59;3.50;;;1.80;;
67500;SDS011;54349;52.528;19.760;2023-03-12T00:46:28;3.80;;;1.90;;
67500;SDS011;54349;52.528;19.760;2023-03-12T00:48:56;3.20;;;2.00;;
67500;SDS011;54349;52.528;19.760;2023-03-12T00:51:25;4.70;;;2.30;;
67500;SDS011;54349;52.528;19.760;2023-03-12T00:53:53;3.90;;;1.90;;
67500;SDS011;54349;52.528;19.760;2023-03-12T00:56:24;3.90;;;1.90;;
67500;SDS011;54349;52.528;19.760;2023-03-12T00:58:53;4.50;;;2.00;;
67500;SDS011;54349;52.528;19.760;2023-03-12T01:01:22;4.00;;;2.00;;
67500;SDS011;54349;52.528;19.760;2023-03-12T01:03:53;4.90;;;2.20;;
67500;SDS011;54349;52.528;19.760;2023-03-12T01:06:24;3.30;;;1.90;;
67500;SDS011;54349;52.528;19.760;2023-03-12T01:08:52;3.80;;;2.00;;
67500;SDS011;54349;52.528;19.760;2023-03-12T01:11:22;3.30;;;1.90;;
67500;SDS011;54349;52.528;19.760;2023-03-12T01:13:51;3.00;;;1.80;;
67500;SDS011;54349;52.528;19.760;2023-03-12T01:16:19;3.80;;;1.90;;
67500;SDS011;54349;52.528;19.760;2023-03-12T01:18:47;3.30;;;1.80;;
67500;SDS011;54349;52.528;19.760;2023-03-12T01:21:15;3.90;;;2.10;;
67500;SDS011;54349;52.528;19.760;2023-03-12T01:23:44;3.30;;;1.90;;
67500;SDS011;54349;52.528;19.760;2023-03-12T01:26:12;3.70;;;2.10;;
67500;SDS011;54349;52.528;19.760;2023-03-12T01:28:42;3.80;;;1.90;;
67500;SDS011;54349;52.528;19.760;2023-03-12T01:31:17;3.20;;;1.80;;
67500;SDS011;54349;52.528;19.760;2023-03-12T01:33:50;3.30;;;1.80;;
67500;SDS011;54349;52.528;19.760;2023-03-12T01:36:22;3.00;;;1.80;;
67500;SDS011;54349;52.528;19.760;2023-03-12T01:38:57;3.80;;;1.90;;
67500;SDS011;54349;52.528;19.760;2023-03-12T01:41:28;4.50;;;2.10;;
67500;SDS011;54349;52.528;19.760;2023-03-12T01:43:59;3.00;;;1.80;;
67500;SDS011;54349;52.528;19.760;2023-03-12T01:46:36;3.20;;;1.80;;
67500;SDS011;54349;52.528;19.760;2023-03-12T01:49:16;2.90;;;1.70;;
67500;SDS011;54349;52.528;19.760;2023-03-12T01:52:05;3.80;;;1.90;;
67500;SDS011;54349;52.528;19.760;2023-03-12T01:54:52;4.60;;;2.10;;
67500;SDS011;54349;52.528;19.760;2023-03-12T02:00:24;3.40;;;1.70;;
67500;SDS011;54349;52.528;19.760;2023-03-12T02:02:57;4.00;;;2.10;;
67500;SDS011;54349;52.528;19.760;2023-03-12T02:06:25;3.20;;;1.80;;
67500;SDS011;54349;52.528;19.760;2023-03-12T02:08:37;3.10;;;1.80;;
67500;SDS011;54349;52.528;19.760;2023-03-12T02:11:10;3.30;;;1.80;;
67500;SDS011;54349;52.528;19.760;2023-03-12T02:13:39;3.90;;;2.00;;
67500;SDS011;54349;52.528;19.760;2023-03-12T02:16:09;3.50;;;2.00;;
67500;SDS011;54349;52.528;19.760;2023-03-12T02:18:38;3.00;;;1.90;;
67500;SDS011;54349;52.528;19.760;2023-03-12T02:21:32;3.70;;;1.90;;
67500;SDS011;54349;52.528;19.760;2023-03-12T02:24:07;4.30;;;2.30;;
67500;SDS011;54349;52.528;19.760;2023-03-12T02:26:39;4.10;;;1.90;;
67500;SDS011;54349;52.528;19.760;2023-03-12T02:29:09;3.70;;;1.80;;
67500;SDS011;54349;52.528;19.760;2023-03-12T02:31:47;4.40;;;2.00;;
67500;SDS011;54349;52.528;19.760;2023-03-12T02:34:19;4.00;;;2.10;;
67500;SDS011;54349;52.528;19.760;2023-03-12T02:36:47;4.90;;;2.20;;
67500;SDS011;54349;52.528;19.760;2023-03-12T02:39:16;4.20;;;2.00;;
67500;SDS011;54349;52.528;19.760;2023-03-12T02:41:56;3.10;;;1.90;;
67500;SDS011;54349;52.528;19.760;2023-03-12T02:44:32;4.10;;;1.80;;
67500;SDS011;54349;52.528;19.760;2023-03-12T02:47:01;3.30;;;2.00;;
67500;SDS011;54349;52.528;19.760;2023-03-12T02:49:32;2.50;;;1.60;;
67500;SDS011;54349;52.528;19.760;2023-03-12T02:52:02;3.90;;;1.80;;
67500;SDS011;54349;52.528;19.760;2023-03-12T02:54:32;2.80;;;1.70;;
67500;SDS011;54349;52.528;19.760;2023-03-12T02:57:00;4.50;;;2.10;;
67500;SDS011;54349;52.528;19.760;2023-03-12T02:59:30;3.90;;;1.70;;
67500;SDS011;54349;52.528;19.760;2023-03-12T03:01:59;4.20;;;2.00;;
67500;SDS011;54349;52.528;19.760;2023-03-12T03:04:31;3.90;;;1.90;;
67500;SDS011;54349;52.528;19.760;2023-03-12T03:07:02;3.80;;;1.70;;
67500;SDS011;54349;52.528;19.760;2023-03-12T03:09:31;3.80;;;1.90;;
67500;SDS011;54349;52.528;19.760;2023-03-12T03:11:59;4.10;;;1.90;;
67500;SDS011;54349;52.528;19.760;2023-03-12T03:14:28;3.90;;;1.80;;
67500;SDS011;54349;52.528;19.760;2023-03-12T03:16:57;5.60;;;1.90;;
67500;SDS011;54349;52.528;19.760;2023-03-12T03:19:27;3.70;;;1.70;;
67500;SDS011;54349;52.528;19.760;2023-03-12T03:21:55;3.80;;;2.00;;
67500;SDS011;54349;52.528;19.760;2023-03-12T03:24:25;2.90;;;1.80;;
67500;SDS011;54349;52.528;19.760;2023-03-12T03:26:53;3.70;;;1.90;;
67500;SDS011;54349;52.528;19.760;2023-03-12T03:29:22;2.90;;;1.70;;
67500;SDS011;54349;52.528;19.760;2023-03-12T03:31:51;4.00;;;2.20;;
67500;SDS011;54349;52.528;19.760;2023-03-12T03:34:19;2.90;;;1.80;;
67500;SDS011;54349;52.528;19.760;2023-03-12T03:36:48;3.60;;;1.90;;
67500;SDS011;54349;52.528;19.760;2023-03-12T03:39:17;2.40;;;1.60;;
67500;SDS011;54349;52.528;19.760;2023-03-12T03:41:47;3.50;;;1.80;;
67500;SDS011;54349;52.528;19.760;2023-03-12T03:44:18;2.70;;;1.60;;
67500;SDS011;54349;52.528;19.760;2023-03-12T03:46:49;3.00;;;1.70;;
67500;SDS011;54349;52.528;19.760;2023-03-12T03:49:18;2.70;;;1.60;;
67500;SDS011;54349;52.528;19.760;2023-03-12T03:51:47;3.90;;;1.90;;
67500;SDS011;54349;52.528;19.760;2023-03-12T03:54:23;3.50;;;1.90;;
67500;SDS011;54349;52.528;19.760;2023-03-12T03:56:52;4.70;;;1.90;;
67500;SDS011;54349;52.528;19.760;2023-03-12T03:59:20;3.20;;;1.80;;
67500;SDS011;54349;52.528;19.760;2023-03-12T04:01:49;3.60;;;1.80;;
67500;SDS011;54349;52.528;19.760;2023-03-12T04:04:17;2.40;;;1.60;;
67500;SDS011;54349;52.528;19.760;2023-03-12T04:06:46;3.80;;;1.70;;
67500;SDS011;54349;52.528;19.760;2023-03-12T04:09:14;2.80;;;1.70;;
67500;SDS011;54349;52.528;19.760;2023-03-12T04:11:42;4.50;;;2.00;;
67500;SDS011;54349;52.528;19.760;2023-03-12T04:14:12;3.40;;;1.80;;
67500;SDS011;54349;52.528;19.760;2023-03-12T04:16:43;3.90;;;1.80;;
67500;SDS011;54349;52.528;19.760;2023-03-12T04:19:13;4.30;;;1.90;;
67500;SDS011;54349;52.528;19.760;2023-03-12T04:21:42;4.20;;;2.00;;
67500;SDS011;54349;52.528;19.760;2023-03-12T04:24:14;3.50;;;1.70;;
67500;SDS011;54349;52.528;19.760;2023-03-12T04:26:44;2.80;;;1.80;;
67500;SDS011;54349;52.528;19.760;2023-03-12T04:29:13;4.90;;;1.90;;
67500;SDS011;54349;52.528;19.760;2023-03-12T04:31:43;3.00;;;1.70;;
67500;SDS011;54349;52.528;19.760;2023-03-12T04:34:13;3.80;;;1.70;;
67500;SDS011;54349;52.528;19.760;2023-03-12T04:36:43;3.40;;;1.80;;
67500;SDS011;54349;52.528;19.760;2023-03-12T04:39:18;4.00;;;1.60;;
67500;SDS011;54349;52.528;19.760;2023-03-12T04:41:49;2.60;;;1.60;;
67500;SDS011;54349;52.528;19.760;2023-03-12T04:44:19;2.30;;;1.70;;
67500;SDS011;54349;52.528;19.760;2023-03-12T04:46:48;3.50;;;1.70;;
67500;SDS011;54349;52.528;19.760;2023-03-12T04:49:18;2.50;;;1.60;;
67500;SDS011;54349;52.528;19.760;2023-03-12T04:51:47;4.30;;;1.90;;
67500;SDS011;54349;52.528;19.760;2023-03-12T04:54:17;3.60;;;1.80;;
67500;SDS011;54349;52.528;19.760;2023-03-12T04:56:49;3.00;;;1.70;;
67500;SDS011;54349;52.528;19.760;2023-03-12T04:59:20;4.20;;;1.80;;
67500;SDS011;54349;52.528;19.760;2023-03-12T05:01:48;4.30;;;1.90;;
67500;SDS011;54349;52.528;19.760;2023-03-12T05:04:22;3.60;;;1.80;;
67500;SDS011;54349;52.528;19.760;2023-03-12T05:06:50;3.00;;;1.80;;
67500;SDS011;54349;52.528;19.760;2023-03-12T05:09:19;4.10;;;1.80;;
67500;SDS011;54349;52.528;19.760;2023-03-12T05:11:47;2.80;;;1.70;;
67500;SDS011;54349;52.528;19.760;2023-03-12T05:14:18;3.20;;;1.80;;
67500;SDS011;54349;52.528;19.760;2023-03-12T05:16:48;4.10;;;1.60;;
67500;SDS011;54349;52.528;19.760;2023-03-12T05:19:16;3.40;;;1.60;;
67500;SDS011;54349;52.528;19.760;2023-03-12T05:21:46;2.80;;;1.70;;
67500;SDS011;54349;52.528;19.760;2023-03-12T05:24:14;2.50;;;1.50;;
67500;SDS011;54349;52.528;19.760;2023-03-12T05:26:43;3.60;;;1.50;;
67500;SDS011;54349;52.528;19.760;2023-03-12T05:29:17;2.90;;;1.60;;
67500;SDS011;54349;52.528;19.760;2023-03-12T05:31:45;4.10;;;1.70;;
67500;SDS011;54349;52.528;19.760;2023-03-12T05:34:14;3.40;;;1.60;;
67500;SDS011;54349;52.528;19.760;2023-03-12T05:36:45;2.90;;;1.60;;
67500;SDS011;54349;52.528;19.760;2023-03-12T05:39:17;4.00;;;1.70;;
67500;SDS011;54349;52.528;19.760;2023-03-12T05:41:46;3.20;;;1.70;;
67500;SDS011;54349;52.528;19.760;2023-03-12T05:44:17;2.90;;;1.70;;
67500;SDS011;54349;52.528;19.760;2023-03-12T05:46:51;3.90;;;1.70;;
67500;SDS011;54349;52.528;19.760;2023-03-12T05:49:23;3.60;;;1.50;;
67500;SDS011;54349;52.528;19.760;2023-03-12T05:51:52;3.70;;;1.60;;
67500;SDS011;54349;52.528;19.760;2023-03-12T05:54:23;2.50;;;1.60;;
67500;SDS011;54349;52.528;19.760;2023-03-12T05:56:53;4.30;;;1.80;;
67500;SDS011;54349;52.528;19.760;2023-03-12T05:59:24;3.60;;;1.70;;
67500;SDS011;54349;52.528;19.760;2023-03-12T06:01:53;3.10;;;1.40;;
67500;SDS011;54349;52.528;19.760;2023-03-12T06:04:22;3.20;;;1.60;;
67500;SDS011;54349;52.528;19.760;2023-03-12T06:06:54;4.10;;;1.80;;
67500;SDS011;54349;52.528;19.760;2023-03-12T06:09:22;3.40;;;1.80;;
67500;SDS011;54349;52.528;19.760;2023-03-12T06:11:52;2.50;;;1.50;;
67500;SDS011;54349;52.528;19.760;2023-03-12T06:14:21;3.30;;;1.70;;
67500;SDS011;54349;52.528;19.760;2023-03-12T06:16:50;3.60;;;1.70;;
67500;SDS011;54349;52.528;19.760;2023-03-12T06:19:18;2.80;;;1.50;;
67500;SDS011;54349;52.528;19.760;2023-03-12T06:21:49;3.00;;;1.70;;
67500;SDS011;54349;52.528;19.760;2023-03-12T06:24:18;2.80;;;1.50;;
67500;SDS011;54349;52.528;19.760;2023-03-12T06:27:07;2.60;;;1.60;;
67500;SDS011;54349;52.528;19.760;2023-03-12T06:29:35;2.10;;;1.60;;
67500;SDS011;54349;52.528;19.760;2023-03-12T06:32:03;3.10;;;1.60;;
67500;SDS011;54349;52.528;19.760;2023-03-12T06:34:32;3.10;;;1.70;;
67500;SDS011;54349;52.528;19.760;2023-03-12T06:37:01;2.60;;;1.60;;
67500;SDS011;54349;52.528;19.760;2023-03-12T06:39:29;3.80;;;1.80;;
67500;SDS011;54349;52.528;19.760;2023-03-12T06:41:58;3.20;;;1.70;;
67500;SDS011;54349;52.528;19.760;2023-03-12T06:44:26;3.40;;;1.60;;
67500;SDS011;54349;52.528;19.760;2023-03-12T06:46:55;2.40;;;1.70;;
67500;SDS011;54349;52.528;19.760;2023-03-12T06:49:23;2.90;;;1.60;;
67500;SDS011;54349;52.528;19.760;2023-03-12T06:51:54;3.60;;;1.70;;
67500;SDS011;54349;52.528;19.760;2023-03-12T06:54:24;2.30;;;1.60;;
67500;SDS011;54349;52.528;19.760;2023-03-12T06:56:54;3.20;;;1.60;;
67500;SDS011;54349;52.528;19.760;2023-03-12T06:59:23;3.90;;;1.70;;
67500;SDS011;54349;52.528;19.760;2023-03-12T07:01:51;2.70;;;1.50;;
67500;SDS011;54349;52.528;19.760;2023-03-12T07:04:20;3.70;;;1.60;;
67500;SDS011;54349;52.528;19.760;2023-03-12T07:06:49;3.40;;;1.60;;
67500;SDS011;54349;52.528;19.760;2023-03-12T07:09:19;2.50;;;1.50;;
67500;SDS011;54349;52.528;19.760;2023-03-12T07:11:47;3.10;;;1.40;;
67500;SDS011;54349;52.528;19.760;2023-03-12T07:14:16;3.50;;;1.50;;
67500;SDS011;54349;52.528;19.760;2023-03-12T07:16:47;3.20;;;1.50;;
67500;SDS011;54349;52.528;19.760;2023-03-12T07:19:16;3.20;;;1.30;;
67500;SDS011;54349;52.528;19.760;2023-03-12T07:21:47;2.50;;;1.40;;
67500;SDS011;54349;52.528;19.760;2023-03-12T07:24:16;4.00;;;1.50;;
67500;SDS011;54349;52.528;19.760;2023-03-12T07:26:45;2.20;;;1.30;;
67500;SDS011;54349;52.528;19.760;2023-03-12T07:29:14;2.00;;;1.40;;
67500;SDS011;54349;52.528;19.760;2023-03-12T07:31:42;3.50;;;1.40;;
67500;SDS011;54349;52.528;19.760;2023-03-12T07:34:11;1.80;;;1.30;;
67500;SDS011;54349;52.528;19.760;2023-03-12T07:36:40;2.30;;;1.30;;
67500;SDS011;54349;52.528;19.760;2023-03-12T07:39:09;2.10;;;1.40;;
67500;SDS011;54349;52.528;19.760;2023-03-12T07:41:38;2.40;;;1.30;;
67500;SDS011;54349;52.528;19.760;2023-03-12T07:44:06;2.40;;;1.10;;
67500;SDS011;54349;52.528;19.760;2023-03-12T07:46:37;1.80;;;1.30;;
67500;SDS011;54349;52.528;19.760;2023-03-12T07:49:05;1.90;;;1.40;;
67500;SDS011;54349;52.528;19.760;2023-03-12T07:51:34;2.20;;;1.30;;
67500;SDS011;54349;52.528;19.760;2023-03-12T07:54:03;3.10;;;1.50;;
67500;SDS011;54349;52.528;19.760;2023-03-12T07:56:31;1.70;;;1.30;;
67500;SDS011;54349;52.528;19.760;2023-03-12T07:59:04;3.40;;;1.20;;
67500;SDS011;54349;52.528;19.760;2023-03-12T08:01:32;3.10;;;1.20;;
67500;SDS011;54349;52.528;19.760;2023-03-12T08:04:04;1.60;;;1.20;;
67500;SDS011;54349;52.528;19.760;2023-03-12T08:06:34;1.70;;;1.20;;
67500;SDS011;54349;52.528;19.760;2023-03-12T08:09:03;2.20;;;1.30;;
67500;SDS011;54349;52.528;19.760;2023-03-12T08:11:33;2.60;;;1.30;;
67500;SDS011;54349;52.528;19.760;2023-03-12T08:14:04;2.50;;;1.50;;
67500;SDS011;54349;52.528;19.760;2023-03-12T08:16:33;1.90;;;1.10;;
67500;SDS011;54349;52.528;19.760;2023-03-12T08:19:02;3.10;;;1.30;;
67500;SDS011;54349;52.528;19.760;2023-03-12T08:21:30;2.20;;;1.20;;
67500;SDS011;54349;52.528;19.760;2023-03-12T08:23:59;2.70;;;1.20;;
67500;SDS011;54349;52.528;19.760;2023-03-12T08:26:27;3.50;;;1.30;;
67500;SDS011;54349;52.528;19.760;2023-03-12T08:28:57;2.50;;;1.50;;
67500;SDS011;54349;52.528;19.760;2023-03-12T08:31:27;2.30;;;1.50;;
67500;SDS011;54349;52.528;19.760;2023-03-12T08:33:56;1.90;;;1.20;;
67500;SDS011;54349;52.528;19.760;2023-03-12T08:36:24;2.80;;;1.50;;
67500;SDS011;54349;52.528;19.760;2023-03-12T08:38:54;2.50;;;1.30;;
67500;SDS011;54349;52.528;19.760;2023-03-12T08:41:23;3.20;;;1.50;;
67500;SDS011;54349;52.528;19.760;2023-03-12T08:43:51;2.60;;;1.30;;
67500;SDS011;54349;52.528;19.760;2023-03-12T08:46:20;3.00;;;1.30;;
67500;SDS011;54349;52.528;19.760;2023-03-12T08:48:48;2.80;;;1.40;;
67500;SDS011;54349;52.528;19.760;2023-03-12T08:51:17;3.10;;;1.50;;
67500;SDS011;54349;52.528;19.760;2023-03-12T08:53:46;3.00;;;1.40;;
67500;SDS011;54349;52.528;19.760;2023-03-12T08:56:14;3.70;;;1.20;;
67500;SDS011;54349;52.528;19.760;2023-03-12T08:58:43;2.70;;;1.40;;
67500;SDS011;54349;52.528;19.760;2023-03-12T09:01:13;2.90;;;1.50;;
67500;SDS011;54349;52.528;19.760;2023-03-12T09:03:42;4.80;;;1.70;;
67500;SDS011;54349;52.528;19.760;2023-03-12T09:06:12;4.00;;;1.30;;
67500;SDS011;54349;52.528;19.760;2023-03-12T09:08:45;3.40;;;1.50;;
67500;SDS011;54349;52.528;19.760;2023-03-12T09:11:14;3.30;;;1.50;;
67500;SDS011;54349;52.528;19.760;2023-03-12T09:13:44;4.60;;;1.60;;
67500;SDS011;54349;52.528;19.760;2023-03-12T09:16:33;3.30;;;1.70;;
67500;SDS011;54349;52.528;19.760;2023-03-12T09:19:03;3.20;;;1.60;;
67500;SDS011;54349;52.528;19.760;2023-03-12T09:21:32;3.10;;;1.60;;
67500;SDS011;54349;52.528;19.760;2023-03-12T09:24:01;2.80;;;1.70;;
67500;SDS011;54349;52.528;19.760;2023-03-12T09:26:30;3.40;;;1.80;;
67500;SDS011;54349;52.528;19.760;2023-03-12T09:29:00;3.40;;;1.60;;
67500;SDS011;54349;52.528;19.760;2023-03-12T09:31:28;4.00;;;1.70;;
67500;SDS011;54349;52.528;19.760;2023-03-12T09:33:58;3.00;;;1.90;;
67500;SDS011;54349;52.528;19.760;2023-03-12T09:36:27;3.20;;;1.70;;
67500;SDS011;54349;52.528;19.760;2023-03-12T09:38:56;4.80;;;1.80;;
67500;SDS011;54349;52.528;19.760;2023-03-12T09:41:29;4.30;;;1.80;;
67500;SDS011;54349;52.528;19.760;2023-03-12T09:44:31;3.10;;;1.70;;
67500;SDS011;54349;52.528;19.760;2023-03-12T09:47:21;3.70;;;1.90;;
67500;SDS011;54349;52.528;19.760;2023-03-12T09:50:35;5.40;;;2.00;;
67500;SDS011;54349;52.528;19.760;2023-03-12T09:53:19;4.60;;;1.80;;
67500;SDS011;54349;52.528;19.760;2023-03-12T09:56:03;3.50;;;1.40;;
67500;SDS011;54349;52.528;19.760;2023-03-12T10:07:30;4.40;;;1.70;;
67500;SDS011;54349;52.528;19.760;2023-03-12T10:16:47;3.00;;;1.70;;
67500;SDS011;54349;52.528;19.760;2023-03-12T10:22:51;4.60;;;2.00;;
67500;SDS011;54349;52.528;19.760;2023-03-12T10:25:44;4.50;;;2.00;;
67500;SDS011;54349;52.528;19.760;2023-03-12T10:28:25;3.80;;;1.60;;
67500;SDS011;54349;52.528;19.760;2023-03-12T10:31:00;4.00;;;1.80;;
67500;SDS011;54349;52.528;19.760;2023-03-12T10:33:46;4.70;;;1.70;;
67500;SDS011;54349;52.528;19.760;2023-03-12T10:36:28;3.90;;;2.00;;
67500;SDS011;54349;52.528;19.760;2023-03-12T10:39:05;3.80;;;1.70;;
67500;SDS011;54349;52.528;19.760;2023-03-12T10:41:43;5.30;;;1.80;;
67500;SDS011;54349;52.528;19.760;2023-03-12T10:44:19;3.50;;;1.60;;
67500;SDS011;54349;52.528;19.760;2023-03-12T10:47:12;2.70;;;1.70;;
67500;SDS011;54349;52.528;19.760;2023-03-12T10:49:46;4.90;;;1.90;;
67500;SDS011;54349;52.528;19.760;2023-03-12T10:52:21;3.90;;;1.60;;
67500;SDS011;54349;52.528;19.760;2023-03-12T10:54:51;2.90;;;1.50;;
67500;SDS011;54349;52.528;19.760;2023-03-12T10:57:20;3.50;;;1.70;;
67500;SDS011;54349;52.528;19.760;2023-03-12T10:59:49;4.20;;;1.90;;
67500;SDS011;54349;52.528;19.760;2023-03-12T11:05:24;3.70;;;1.70;;
67500;SDS011;54349;52.528;19.760;2023-03-12T11:07:53;4.60;;;1.70;;
67500;SDS011;54349;52.528;19.760;2023-03-12T11:10:42;3.70;;;1.70;;
67500;SDS011;54349;52.528;19.760;2023-03-12T11:13:32;3.70;;;1.50;;
67500;SDS011;54349;52.528;19.760;2023-03-12T11:18:55;2.90;;;1.70;;
67500;SDS011;54349;52.528;19.760;2023-03-12T11:21:24;4.20;;;1.80;;
67500;SDS011;54349;52.528;19.760;2023-03-12T11:26:29;3.70;;;1.70;;
67500;SDS011;54349;52.528;19.760;2023-03-12T11:34:32;5.50;;;1.90;;
67500;SDS011;54349;52.528;19.760;2023-03-12T11:37:14;3.80;;;1.60;;
67500;SDS011;54349;52.528;19.760;2023-03-12T11:45:52;4.60;;;1.70;;
67500;SDS011;54349;52.528;19.760;2023-03-12T11:49:01;4.10;;;1.80;;
67500;SDS011;54349;52.528;19.760;2023-03-12T11:54:47;3.10;;;1.60;;
67500;SDS011;54349;52.528;19.760;2023-03-12T12:00:32;3.70;;;1.90;;
67500;SDS011;54349;52.528;19.760;2023-03-12T12:03:37;4.20;;;1.80;;
67500;SDS011;54349;52.528;19.760;2023-03-12T12:06:47;3.90;;;1.60;;
67500;SDS011;54349;52.528;19.760;2023-03-12T12:10:00;2.60;;;1.60;;
67500;SDS011;54349;52.528;19.760;2023-03-12T12:25:17;4.20;;;1.80;;
67500;SDS011;54349;52.528;19.760;2023-03-12T12:36:17;3.60;;;1.70;;
67500;SDS011;54349;52.528;19.760;2023-03-12T12:38:52;3.60;;;1.80;;
67500;SDS011;54349;52.528;19.760;2023-03-12T12:41:31;3.60;;;1.70;;
67500;SDS011;54349;52.528;19.760;2023-03-12T12:44:11;3.40;;;1.60;;
67500;SDS011;54349;52.528;19.760;2023-03-12T12:46:54;3.80;;;1.80;;
67500;SDS011;54349;52.528;19.760;2023-03-12T12:49:42;2.70;;;1.50;;
67500;SDS011;54349;52.528;19.760;2023-03-12T12:52:21;2.70;;;1.50;;
67500;SDS011;54349;52.528;19.760;2023-03-12T12:58:14;4.20;;;1.70;;
67500;SDS011;54349;52.528;19.760;2023-03-12T13:00:57;2.90;;;1.60;;
67500;SDS011;54349;52.528;19.760;2023-03-12T13:03:28;3.60;;;1.60;;
67500;SDS011;54349;52.528;19.760;2023-03-12T13:05:58;3.40;;;1.50;;
67500;SDS011;54349;52.528;19.760;2023-03-12T13:08:58;2.60;;;1.40;;
67500;SDS011;54349;52.528;19.760;2023-03-12T13:11:42;2.80;;;1.50;;
67500;SDS011;54349;52.528;19.760;2023-03-12T13:14:21;5.50;;;2.00;;
67500;SDS011;54349;52.528;19.760;2023-03-12T13:17:27;4.20;;;1.70;;
67500;SDS011;54349;52.528;19.760;2023-03-12T13:30:59;10.20;;;2.80;;
67500;SDS011;54349;52.528;19.760;2023-03-12T13:33:39;8.10;;;2.90;;
67500;SDS011;54349;52.528;19.760;2023-03-12T13:47:30;6.50;;;2.60;;
67500;SDS011;54349;52.528;19.760;2023-03-12T13:50:07;8.60;;;2.80;;
67500;SDS011;54349;52.528;19.760;2023-03-12T13:52:49;6.40;;;2.80;;
67500;SDS011;54349;52.528;19.760;2023-03-12T13:55:35;7.70;;;3.20;;
67500;SDS011;54349;52.528;19.760;2023-03-12T13:58:08;6.70;;;2.70;;
67500;SDS011;54349;52.528;19.760;2023-03-12T14:01:04;7.50;;;2.70;;
67500;SDS011;54349;52.528;19.760;2023-03-12T14:03:45;5.80;;;2.60;;
67500;SDS011;54349;52.528;19.760;2023-03-12T14:06:20;5.90;;;2.60;;
67500;SDS011;54349;52.528;19.760;2023-03-12T14:18:22;8.00;;;2.70;;
67500;SDS011;54349;52.528;19.760;2023-03-12T14:20:57;7.50;;;3.10;;
67500;SDS011;54349;52.528;19.760;2023-03-12T14:23:32;8.30;;;3.30;;
67500;SDS011;54349;52.528;19.760;2023-03-12T14:26:04;10.60;;;3.50;;
67500;SDS011;54349;52.528;19.760;2023-03-12T14:28:39;6.80;;;3.00;;
67500;SDS011;54349;52.528;19.760;2023-03-12T14:31:13;7.40;;;2.80;;
67500;SDS011;54349;52.528;19.760;2023-03-12T14:39:40;9.30;;;3.10;;
67500;SDS011;54349;52.528;19.760;2023-03-12T14:42:19;6.80;;;2.60;;
67500;SDS011;54349;52.528;19.760;2023-03-12T14:45:14;6.90;;;3.00;;
67500;SDS011;54349;52.528;19.760;2023-03-12T14:47:54;8.40;;;2.80;;
67500;SDS011;54349;52.528;19.760;2023-03-12T14:50:36;6.90;;;2.70;;
67500;SDS011;54349;52.528;19.760;2023-03-12T14:58:47;7.60;;;2.80;;
67500;SDS011;54349;52.528;19.760;2023-03-12T15:01:30;7.10;;;2.70;;
67500;SDS011;54349;52.528;19.760;2023-03-12T15:04:05;7.80;;;2.70;;
67500;SDS011;54349;52.528;19.760;2023-03-12T15:07:01;8.70;;;2.70;;
67500;SDS011;54349;52.528;19.760;2023-03-12T15:09:34;6.60;;;2.80;;
67500;SDS011;54349;52.528;19.760;2023-03-12T15:12:06;6.80;;;2.60;;
67500;SDS011;54349;52.528;19.760;2023-03-12T15:14:48;6.80;;;2.80;;
67500;SDS011;54349;52.528;19.760;2023-03-12T15:17:23;7.20;;;2.80;;
67500;SDS011;54349;52.528;19.760;2023-03-12T15:19:56;7.90;;;2.70;;
67500;SDS011;54349;52.528;19.760;2023-03-12T15:22:26;5.00;;;2.60;;
67500;SDS011;54349;52.528;19.760;2023-03-12T15:24:54;6.30;;;2.80;;
67500;SDS011;54349;52.528;19.760;2023-03-12T15:29:51;6.80;;;2.50;;
67500;SDS011;54349;52.528;19.760;2023-03-12T15:32:22;5.90;;;2.70;;
67500;SDS011;54349;52.528;19.760;2023-03-12T15:34:53;8.30;;;2.60;;
67500;SDS011;54349;52.528;19.760;2023-03-12T15:37:34;6.30;;;2.70;;
67500;SDS011;54349;52.528;19.760;2023-03-12T15:40:28;5.90;;;2.40;;
67500;SDS011;54349;52.528;19.760;2023-03-12T15:42:58;6.80;;;2.70;;
67500;SDS011;54349;52.528;19.760;2023-03-12T15:45:36;6.70;;;2.70;;
67500;SDS011;54349;52.528;19.760;2023-03-12T15:50:53;6.60;;;2.50;;
67500;SDS011;54349;52.528;19.760;2023-03-12T15:56:00;7.40;;;2.90;;
67500;SDS011;54349;52.528;19.760;2023-03-12T15:58:38;6.10;;;2.60;;
67500;SDS011;54349;52.528;19.760;2023-03-12T16:01:11;5.40;;;2.60;;
67500;SDS011;54349;52.528;19.760;2023-03-12T16:03:43;5.30;;;2.60;;
67500;SDS011;54349;52.528;19.760;2023-03-12T16:06:15;7.30;;;2.70;;
67500;SDS011;54349;52.528;19.760;2023-03-12T16:08:47;8.40;;;2.70;;
67500;SDS011;54349;52.528;19.760;2023-03-12T16:11:24;5.60;;;2.60;;
67500;SDS011;54349;52.528;19.760;2023-03-12T16:14:22;5.50;;;2.40;;
67500;SDS011;54349;52.528;19.760;2023-03-12T16:16:54;7.00;;;2.60;;
67500;SDS011;54349;52.528;19.760;2023-03-12T16:19:27;6.30;;;2.70;;
67500;SDS011;54349;52.528;19.760;2023-03-12T16:21:57;6.00;;;2.80;;
67500;SDS011;54349;52.528;19.760;2023-03-12T16:24:26;6.40;;;2.40;;
67500;SDS011;54349;52.528;19.760;2023-03-12T16:26:57;5.50;;;2.70;;
67500;SDS011;54349;52.528;19.760;2023-03-12T16:29:31;6.30;;;2.70;;
67500;SDS011;54349;52.528;19.760;2023-03-12T16:32:09;6.20;;;2.60;;
67500;SDS011;54349;52.528;19.760;2023-03-12T16:34:40;7.10;;;3.00;;
67500;SDS011;54349;52.528;19.760;2023-03-12T16:37:10;7.70;;;3.10;;
67500;SDS011;54349;52.528;19.760;2023-03-12T16:39:39;6.20;;;2.70;;
67500;SDS011;54349;52.528;19.760;2023-03-12T16:42:16;6.10;;;3.10;;
67500;SDS011;54349;52.528;19.760;2023-03-12T16:44:47;6.20;;;3.00;;
67500;SDS011;54349;52.528;19.760;2023-03-12T16:47:16;5.90;;;2.60;;
67500;SDS011;54349;52.528;19.760;2023-03-12T16:49:44;6.10;;;2.70;;
67500;SDS011;54349;52.528;19.760;2023-03-12T16:52:23;5.90;;;2.60;;
67500;SDS011;54349;52.528;19.760;2023-03-12T16:54:55;5.80;;;2.60;;
67500;SDS011;54349;52.528;19.760;2023-03-12T16:57:39;5.80;;;2.70;;
67500;SDS011;54349;52.528;19.760;2023-03-12T17:00:20;6.30;;;2.40;;
67500;SDS011;54349;52.528;19.760;2023-03-12T17:02:52;7.30;;;2.50;;
67500;SDS011;54349;52.528;19.760;2023-03-12T17:05:29;6.80;;;2.80;;
67500;SDS011;54349;52.528;19.760;2023-03-12T17:07:58;7.60;;;2.60;;
67500;SDS011;54349;52.528;19.760;2023-03-12T17:10:26;5.70;;;2.30;;
67500;SDS011;54349;52.528;19.760;2023-03-12T17:12:55;6.90;;;2.40;;